Time;durP1;ratioP1;P1;durP2;ratioP2;P2;SDS_P1;SDS_P2;PMS_P1;PMS_P2;Temp;Humidity;BMP_temperature;BMP_pressure;BME280_temperature;BME280_humidity;BME280_pressure;Samples;Min_cycle;Max_cycle;Signal;HPM_P1;HPM_P2
2022/11/18 00:02:15;;;;;;;0.70;0.70;;;11.30;99.90;;;;;;5011726;28;20201;-65
2022/11/18 00:04:42;;;;;;;0.43;0.43;;;11.30;99.90;;;;;;5004822;28;20217;-65
2022/11/18 00:07:09;;;;;;;0.40;0.40;;;11.30;99.90;;;;;;5008203;28;20720;-65
2022/11/18 00:09:36;;;;;;;0.47;0.40;;;11.20;99.90;;;;;;5005562;28;20266;-66
2022/11/18 00:14:48;;;;;;;0.30;0.30;;;11.30;99.90;;;;;;5007425;28;20304;-64
2022/11/18 00:17:15;;;;;;;1.50;0.40;;;11.30;99.90;;;;;;5015025;28;20400;-64
2022/11/18 00:19:42;;;;;;;0.50;0.50;;;11.30;99.90;;;;;;5019994;28;20256;-64
2022/11/18 00:22:13;;;;;;;0.53;0.53;;;11.30;99.90;;;;;;5013397;28;20201;-65
2022/11/18 00:24:40;;;;;;;0.60;0.60;;;11.30;99.90;;;;;;5020467;28;20607;-65
2022/11/18 00:27:07;;;;;;;0.43;0.43;;;11.30;99.90;;;;;;5018270;28;20235;-65
2022/11/18 00:29:33;;;;;;;0.53;0.53;;;11.30;99.90;;;;;;5027542;28;20235;-66
2022/11/18 00:32:02;;;;;;;0.37;0.37;;;11.30;99.90;;;;;;5013433;28;20202;-64
2022/11/18 00:34:28;;;;;;;0.60;0.60;;;11.30;99.90;;;;;;5000883;28;20201;-66
2022/11/18 00:36:55;;;;;;;0.37;0.37;;;11.30;99.90;;;;;;5005734;28;20276;-65
2022/11/18 00:39:22;;;;;;;0.47;0.47;;;11.30;99.90;;;;;;5003071;28;20281;-65
2022/11/18 00:44:34;;;;;;;0.47;0.47;;;11.30;99.90;;;;;;5007249;28;20289;-65
2022/11/18 00:47:02;;;;;;;0.23;0.23;;;11.30;99.90;;;;;;5008157;28;20225;-65
2022/11/18 00:49:30;;;;;;;0.30;0.30;;;11.20;99.90;;;;;;5006019;28;20311;-65
2022/11/18 00:51:56;;;;;;;0.30;0.30;;;11.20;99.90;;;;;;5002971;28;20209;-64
2022/11/18 00:54:23;;;;;;;0.33;0.33;;;11.20;99.90;;;;;;5004591;28;20647;-65
2022/11/18 00:56:50;;;;;;;0.40;0.40;;;11.30;99.90;;;;;;5005028;28;20614;-65
2022/11/18 00:59:17;;;;;;;0.30;0.30;;;11.30;99.90;;;;;;5001391;28;20204;-65
2022/11/18 01:01:44;;;;;;;0.40;0.40;;;11.20;99.90;;;;;;5007189;28;20225;-64
2022/11/18 01:04:12;;;;;;;0.40;0.37;;;11.20;99.90;;;;;;5018228;28;20216;-65
2022/11/18 01:06:39;;;;;;;0.40;0.40;;;11.20;99.90;;;;;;5024242;28;20227;-67
2022/11/18 01:09:06;;;;;;;0.40;0.40;;;11.20;99.90;;;;;;5020526;28;20198;-66
2022/11/18 01:14:17;;;;;;;0.20;0.20;;;11.20;99.90;;;;;;5021737;28;20224;-65
2022/11/18 01:16:49;;;;;;;0.40;0.40;;;11.20;99.90;;;;;;5019567;28;20614;-66
2022/11/18 01:19:18;;;;;;;0.37;0.37;;;11.20;99.90;;;;;;5020617;28;20224;-65
2022/11/18 01:21:45;;;;;;;0.23;0.23;;;11.20;99.90;;;;;;5008909;28;20264;-65
2022/11/18 01:24:12;;;;;;;0.40;0.40;;;11.20;99.90;;;;;;5019916;28;20202;-65
2022/11/18 01:26:39;;;;;;;0.43;0.43;;;11.20;99.90;;;;;;5022579;28;20224;-65
2022/11/18 01:29:05;;;;;;;0.40;0.40;;;11.30;99.90;;;;;;5023016;28;20259;-65
2022/11/18 01:31:32;;;;;;;0.40;0.40;;;11.30;99.90;;;;;;5013551;28;20198;-65
2022/11/18 01:33:59;;;;;;;0.40;0.40;;;11.30;99.90;;;;;;5025973;28;20296;-65
2022/11/18 01:36:28;;;;;;;0.60;0.60;;;11.40;99.90;;;;;;5013917;28;20256;-65
2022/11/18 01:38:55;;;;;;;0.30;0.30;;;11.40;99.90;;;;;;5016733;28;20204;-65
2022/11/18 01:41:24;;;;;;;0.30;0.30;;;11.50;99.90;;;;;;5021731;28;20225;-65
2022/11/18 01:43:53;;;;;;;0.23;0.23;;;11.40;99.90;;;;;;5023469;28;20211;-65
2022/11/18 01:46:22;;;;;;;0.30;0.30;;;11.50;99.90;;;;;;5023103;28;20239;-65
2022/11/18 01:48:52;;;;;;;0.30;0.30;;;11.50;99.90;;;;;;5026275;28;20207;-65
2022/11/18 01:51:23;;;;;;;0.30;0.30;;;11.50;99.90;;;;;;5018031;28;20229;-65
2022/11/18 01:53:58;;;;;;;0.30;0.30;;;11.50;99.90;;;;;;5031289;28;20292;-65
2022/11/18 01:56:31;;;;;;;0.30;0.30;;;11.50;99.90;;;;;;5032900;28;20266;-65
2022/11/18 01:59:02;;;;;;;0.40;0.40;;;11.60;99.90;;;;;;5030570;28;20232;-65
2022/11/18 02:01:29;;;;;;;0.40;0.40;;;11.60;99.90;;;;;;5025599;28;20656;-65
2022/11/18 02:03:56;;;;;;;0.40;0.40;;;11.60;99.90;;;;;;5020520;28;20835;-65
2022/11/18 02:06:23;;;;;;;0.37;0.37;;;11.60;99.90;;;;;;5030648;28;20410;-65
2022/11/18 02:08:52;;;;;;;0.40;0.40;;;11.60;99.90;;;;;;5026740;28;20196;-65
2022/11/18 02:14:10;;;;;;;0.20;0.20;;;11.70;99.90;;;;;;5000182;28;20197;-65
2022/11/18 02:16:53;;;;;;;0.40;0.40;;;11.60;99.90;;;;;;5029460;28;20208;-65
2022/11/18 02:19:47;;;;;;;0.40;0.40;;;11.60;99.90;;;;;;5033253;28;20200;-65
2022/11/18 02:22:30;;;;;;;0.50;0.40;;;11.50;99.90;;;;;;5025168;28;20208;-65
2022/11/18 02:25:07;;;;;;;0.40;0.40;;;11.50;99.90;;;;;;5005751;28;20287;-65
2022/11/18 02:28:09;;;;;;;0.40;0.40;;;11.50;99.90;;;;;;5028491;28;20212;-65
2022/11/18 02:30:44;;;;;;;0.50;0.50;;;11.40;99.90;;;;;;5023704;28;20233;-65
2022/11/18 02:33:17;;;;;;;0.30;0.30;;;11.40;99.90;;;;;;5029617;28;20208;-64
2022/11/18 02:35:47;;;;;;;0.30;0.30;;;11.30;99.90;;;;;;5030227;28;20228;-65
2022/11/18 02:38:22;;;;;;;0.40;0.40;;;11.30;99.90;;;;;;5019137;28;20606;-65
2022/11/18 02:40:55;;;;;;;0.37;0.37;;;11.20;99.90;;;;;;5016938;28;20231;-65
2022/11/18 02:43:26;;;;;;;0.20;0.20;;;11.20;99.90;;;;;;5027821;28;20205;-65
2022/11/18 02:46:00;;;;;;;0.20;0.20;;;11.10;99.90;;;;;;5033026;28;20209;-65
2022/11/18 02:48:30;;;;;;;0.43;0.43;;;11.00;99.90;;;;;;5021639;28;20217;-65
2022/11/18 02:50:59;;;;;;;0.20;0.20;;;11.00;99.90;;;;;;5015050;28;20592;-66
2022/11/18 02:53:29;;;;;;;0.37;0.37;;;11.10;99.90;;;;;;5018413;28;20284;-65
2022/11/18 02:55:57;;;;;;;0.20;0.20;;;11.00;99.90;;;;;;5026919;28;20268;-65
2022/11/18 02:58:25;;;;;;;0.33;0.33;;;11.00;99.90;;;;;;5027813;28;20192;-65
2022/11/18 03:00:58;;;;;;;0.23;0.23;;;11.00;99.90;;;;;;5029899;28;20242;-65
2022/11/18 03:03:28;;;;;;;0.20;0.20;;;11.00;99.90;;;;;;5035936;28;20264;-65
2022/11/18 03:06:04;;;;;;;0.30;0.30;;;11.00;99.90;;;;;;5025418;28;20651;-64
2022/11/18 03:08:37;;;;;;;0.20;0.20;;;11.00;99.90;;;;;;5029399;28;20216;-65
2022/11/18 03:11:14;;;;;;;0.13;0.13;;;11.00;99.90;;;;;;5022716;28;20240;-65
2022/11/18 03:13:49;;;;;;;0.23;0.23;;;11.00;99.90;;;;;;5022212;28;20223;-65
2022/11/18 03:16:25;;;;;;;0.67;0.27;;;10.90;99.90;;;;;;5032163;28;20200;-65
2022/11/18 03:18:56;;;;;;;0.20;0.20;;;10.90;99.90;;;;;;5021099;28;20207;-65
2022/11/18 03:21:30;;;;;;;0.13;0.13;;;10.90;99.90;;;;;;5031855;28;20256;-66
2022/11/18 03:24:06;;;;;;;0.20;0.20;;;10.90;99.90;;;;;;5019638;28;20202;-66
2022/11/18 03:26:38;;;;;;;0.20;0.20;;;10.90;99.90;;;;;;5024611;28;20232;-65
2022/11/18 03:29:10;;;;;;;0.23;0.23;;;10.90;99.90;;;;;;5025982;28;20282;-65
2022/11/18 03:31:42;;;;;;;0.10;0.10;;;10.90;99.90;;;;;;5024482;28;20220;-65
2022/11/18 03:34:13;;;;;;;0.20;0.20;;;10.90;99.90;;;;;;5021558;28;20278;-65
2022/11/18 03:36:45;;;;;;;0.10;0.10;;;11.00;99.90;;;;;;5029329;28;20266;-65
2022/11/18 03:39:14;;;;;;;0.20;0.20;;;10.90;99.90;;;;;;5017443;28;20670;-65
2022/11/18 03:41:46;;;;;;;0.30;0.30;;;10.80;99.90;;;;;;5028086;28;20199;-65
2022/11/18 03:44:18;;;;;;;0.27;0.27;;;10.80;99.90;;;;;;5030321;28;20287;-65
2022/11/18 03:46:50;;;;;;;0.30;0.30;;;10.90;99.90;;;;;;5003056;28;20207;-66
2022/11/18 03:49:22;;;;;;;0.20;0.20;;;10.80;99.90;;;;;;5024210;28;20235;-65
2022/11/18 03:51:54;;;;;;;0.27;0.27;;;10.90;99.90;;;;;;5023625;28;20210;-66
2022/11/18 03:54:26;;;;;;;0.20;0.20;;;11.00;99.90;;;;;;5022884;28;20219;-65
2022/11/18 03:56:57;;;;;;;0.20;0.20;;;11.00;99.90;;;;;;5036116;22;20258;-65
2022/11/18 03:59:29;;;;;;;0.20;0.20;;;11.00;99.90;;;;;;4993010;28;20212;-64
2022/11/18 04:02:03;;;;;;;0.10;0.10;;;11.00;99.90;;;;;;4996861;28;20206;-63
2022/11/18 04:04:30;;;;;;;0.20;0.20;;;11.00;99.90;;;;;;4997620;28;20202;-64
2022/11/18 04:07:03;;;;;;;0.20;0.20;;;11.00;99.90;;;;;;5007778;28;20305;-63
2022/11/18 04:09:35;;;;;;;0.30;0.30;;;11.00;99.90;;;;;;5006675;28;20660;-63
2022/11/18 04:12:05;;;;;;;0.23;0.23;;;11.10;99.90;;;;;;5002501;28;20233;-64
2022/11/18 04:14:34;;;;;;;0.40;0.30;;;11.20;99.90;;;;;;4997849;28;20256;-66
2022/11/18 04:17:07;;;;;;;0.20;0.20;;;11.20;99.90;;;;;;5003958;28;20323;-64
2022/11/18 04:19:34;;;;;;;0.20;0.20;;;11.20;99.90;;;;;;4998003;28;20198;-62
2022/11/18 04:22:01;;;;;;;0.30;0.30;;;11.10;99.90;;;;;;5012922;28;20288;-64
2022/11/18 04:24:28;;;;;;;0.40;0.40;;;11.00;99.90;;;;;;4999681;28;20660;-64
2022/11/18 04:26:55;;;;;;;0.30;0.30;;;11.00;99.90;;;;;;5000987;28;20221;-62
2022/11/18 04:29:21;;;;;;;0.50;0.50;;;10.90;99.90;;;;;;4996358;28;20208;-63
2022/11/18 04:31:48;;;;;;;0.50;0.50;;;10.90;99.90;;;;;;4997979;28;20613;-62
2022/11/18 04:34:17;;;;;;;0.50;0.50;;;10.90;99.90;;;;;;4999972;28;20214;-62
2022/11/18 04:36:44;;;;;;;0.70;0.70;;;10.80;99.90;;;;;;4986408;28;20232;-64
2022/11/18 04:39:11;;;;;;;0.50;0.50;;;10.60;99.90;;;;;;4992158;28;20301;-62
2022/11/18 04:41:55;;;;;;;0.60;0.60;;;10.40;99.90;;;;;;5000076;28;20824;-63
2022/11/18 04:44:23;;;;;;;0.30;0.30;;;10.30;99.90;;;;;;4994352;28;20297;-63
2022/11/18 04:46:49;;;;;;;0.30;0.30;;;10.30;99.90;;;;;;5002356;28;20679;-65
2022/11/18 04:49:18;;;;;;;0.30;0.30;;;10.20;99.90;;;;;;4997686;28;20296;-63
2022/11/18 04:51:45;;;;;;;0.50;0.43;;;10.00;99.90;;;;;;4997569;28;20212;-63
2022/11/18 04:54:13;;;;;;;0.10;0.10;;;10.00;99.90;;;;;;4994787;28;20202;-63
2022/11/18 04:56:41;;;;;;;0.20;0.20;;;10.00;99.90;;;;;;4991189;28;20703;-62
2022/11/18 04:59:08;;;;;;;0.40;0.40;;;9.90;99.90;;;;;;4996114;28;20190;-64
2022/11/18 05:01:35;;;;;;;0.40;0.40;;;9.90;99.90;;;;;;4993301;28;20210;-63
2022/11/18 05:04:03;;;;;;;0.20;0.20;;;9.90;99.90;;;;;;4996539;28;20297;-63
2022/11/18 05:06:32;;;;;;;0.20;0.20;;;9.90;99.90;;;;;;5000850;28;20312;-62
2022/11/18 05:09:01;;;;;;;0.20;0.20;;;9.80;99.90;;;;;;4998317;28;20222;-62
2022/11/18 05:14:12;;;;;;;0.30;0.30;;;9.80;99.90;;;;;;4999108;28;20204;-63
2022/11/18 05:16:39;;;;;;;0.43;0.30;;;9.80;99.90;;;;;;4998374;28;20259;-63
2022/11/18 05:19:07;;;;;;;0.40;0.40;;;9.80;99.90;;;;;;5003328;28;20297;-63
2022/11/18 05:21:36;;;;;;;0.37;0.27;;;9.80;99.90;;;;;;5003338;28;20206;-63
2022/11/18 05:24:04;;;;;;;0.43;0.43;;;9.90;99.90;;;;;;4996443;28;20198;-63
2022/11/18 05:26:32;;;;;;;0.30;0.30;;;9.90;99.90;;;;;;5002667;28;20280;-63
2022/11/18 05:28:59;;;;;;;0.23;0.23;;;9.90;99.90;;;;;;4999597;28;20261;-62
2022/11/18 05:31:25;;;;;;;0.37;0.37;;;10.00;99.90;;;;;;5004065;28;20297;-64
2022/11/18 05:33:52;;;;;;;0.50;0.50;;;10.10;99.90;;;;;;5000907;28;20201;-64
2022/11/18 05:36:21;;;;;;;0.27;0.27;;;10.20;99.90;;;;;;5002513;28;20308;-63
2022/11/18 05:38:49;;;;;;;0.27;0.27;;;10.10;99.90;;;;;;4999830;28;20198;-63
2022/11/18 05:43:57;;;;;;;0.30;0.30;;;10.20;99.90;;;;;;4994380;28;20198;-62
2022/11/18 05:46:24;;;;;;;0.33;0.33;;;10.30;99.90;;;;;;4995777;28;20225;-62
2022/11/18 05:48:51;;;;;;;0.40;0.40;;;10.30;99.90;;;;;;4999559;28;20221;-63
2022/11/18 05:51:18;;;;;;;0.50;0.40;;;10.40;99.90;;;;;;4999961;28;20261;-65
2022/11/18 05:53:47;;;;;;;0.50;0.50;;;10.30;99.90;;;;;;4998852;28;20614;-64
2022/11/18 05:56:20;;;;;;;0.43;0.43;;;10.40;99.90;;;;;;4998545;28;20328;-63
2022/11/18 05:58:47;;;;;;;0.47;0.40;;;10.30;99.90;;;;;;5002531;28;20202;-64
2022/11/18 06:01:17;;;;;;;0.40;0.40;;;10.40;99.90;;;;;;4998643;28;20202;-63
2022/11/18 06:03:44;;;;;;;0.27;0.27;;;10.40;99.90;;;;;;4996272;28;20194;-64
2022/11/18 06:06:15;;;;;;;0.50;0.50;;;10.30;99.90;;;;;;5002005;28;20714;-64
2022/11/18 06:08:46;;;;;;;0.33;0.33;;;10.30;99.90;;;;;;4994907;28;20226;-62
2022/11/18 06:11:17;;;;;;;0.40;0.40;;;10.30;99.90;;;;;;4999935;28;20347;-64
2022/11/18 06:13:50;;;;;;;0.40;0.40;;;10.30;99.90;;;;;;4995499;28;20706;-64
2022/11/18 06:16:18;;;;;;;0.50;0.50;;;10.30;99.90;;;;;;4997450;28;20205;-62
2022/11/18 06:18:45;;;;;;;0.40;0.40;;;10.30;99.90;;;;;;4996700;28;20198;-65
2022/11/18 06:21:12;;;;;;;0.40;0.40;;;10.30;99.90;;;;;;5002854;28;20204;-63
2022/11/18 06:23:42;;;;;;;0.50;0.50;;;10.30;99.90;;;;;;5001304;28;20210;-65
2022/11/18 06:26:11;;;;;;;0.50;0.50;;;10.30;99.90;;;;;;5002143;28;20210;-63
2022/11/18 06:28:40;;;;;;;0.67;0.67;;;10.30;99.90;;;;;;4996632;28;20222;-63
2022/11/18 06:31:07;;;;;;;0.60;0.60;;;10.30;99.90;;;;;;4992601;28;20289;-65
2022/11/18 06:33:34;;;;;;;0.60;0.60;;;10.30;99.90;;;;;;4999512;28;20289;-65
2022/11/18 06:36:01;;;;;;;0.43;0.43;;;10.30;99.90;;;;;;4993406;28;20209;-63
2022/11/18 06:38:28;;;;;;;0.53;0.53;;;10.30;99.90;;;;;;5000667;28;20717;-63
2022/11/18 06:40:59;;;;;;;0.60;0.60;;;10.30;99.90;;;;;;4987683;28;20203;-64
2022/11/18 06:43:42;;;;;;;0.80;0.80;;;10.30;99.90;;;;;;5000153;28;20208;-64
2022/11/18 06:48:57;;;;;;;0.63;0.50;;;10.30;99.90;;;;;;4998657;28;20379;-64
2022/11/18 06:51:24;;;;;;;0.40;0.40;;;10.30;99.90;;;;;;4998320;28;20287;-64
2022/11/18 06:53:51;;;;;;;0.50;0.50;;;10.40;99.90;;;;;;4990945;28;20236;-63
2022/11/18 06:56:20;;;;;;;0.53;0.53;;;10.40;99.90;;;;;;4996753;28;20201;-63
2022/11/18 06:58:47;;;;;;;0.50;0.50;;;10.40;99.90;;;;;;4993638;28;20201;-63
2022/11/18 07:01:17;;;;;;;0.30;0.30;;;10.40;99.90;;;;;;4998878;28;20740;-63
2022/11/18 07:03:46;;;;;;;0.37;0.37;;;10.40;99.90;;;;;;4992474;28;20197;-63
2022/11/18 07:06:14;;;;;;;0.40;0.40;;;10.40;99.90;;;;;;5000721;28;20202;-63
2022/11/18 07:08:42;;;;;;;0.30;0.30;;;10.30;99.90;;;;;;4994558;28;20221;-64
2022/11/18 07:11:12;;;;;;;0.33;0.33;;;10.40;99.90;;;;;;4988225;28;20206;-64
2022/11/18 07:13:39;;;;;;;0.40;0.40;;;10.40;99.90;;;;;;4999558;28;20668;-63
2022/11/18 07:16:08;;;;;;;0.40;0.40;;;10.40;99.90;;;;;;5001773;28;20201;-64
2022/11/18 07:18:38;;;;;;;0.27;0.27;;;10.40;99.90;;;;;;4993738;28;20198;-65
2022/11/18 07:21:06;;;;;;;0.40;0.40;;;10.40;99.90;;;;;;5002495;28;20202;-65
2022/11/18 07:23:35;;;;;;;0.43;0.43;;;10.40;99.90;;;;;;4993458;28;20209;-63
2022/11/18 07:26:02;;;;;;;0.43;0.43;;;10.40;99.90;;;;;;4996139;28;20224;-64
2022/11/18 07:28:30;;;;;;;0.90;0.80;;;10.40;99.90;;;;;;4995805;28;20218;-64
2022/11/18 07:31:01;;;;;;;0.40;0.40;;;10.40;99.90;;;;;;4996662;28;20288;-65
2022/11/18 07:33:28;;;;;;;0.60;0.60;;;10.50;99.90;;;;;;5000097;28;20699;-64
2022/11/18 07:35:56;;;;;;;0.40;0.40;;;10.60;99.90;;;;;;5002914;28;20224;-64
2022/11/18 07:38:23;;;;;;;0.40;0.40;;;10.70;99.90;;;;;;5001263;28;20291;-65
2022/11/18 07:40:50;;;;;;;0.40;0.40;;;10.70;99.90;;;;;;4989675;28;20203;-63
2022/11/18 07:43:17;;;;;;;0.50;0.50;;;10.70;99.90;;;;;;4998582;28;20705;-63
2022/11/18 07:45:43;;;;;;;0.53;0.53;;;10.70;99.90;;;;;;4994593;28;20206;-63
2022/11/18 07:48:10;;;;;;;0.60;0.60;;;10.70;99.90;;;;;;5000564;28;20343;-65
2022/11/18 07:50:37;;;;;;;0.50;0.50;;;10.70;99.90;;;;;;5007079;28;20214;-65
2022/11/18 07:53:05;;;;;;;0.30;0.30;;;10.80;99.90;;;;;;5003963;28;20273;-64
2022/11/18 07:55:32;;;;;;;0.40;0.40;;;10.80;99.90;;;;;;5003864;28;20288;-62
2022/11/18 07:57:59;;;;;;;0.30;0.30;;;10.80;99.90;;;;;;4997536;28;20230;-64
2022/11/18 08:00:25;;;;;;;0.30;0.20;;;10.70;99.90;;;;;;5007821;28;20292;-64
2022/11/18 08:02:53;;;;;;;0.30;0.30;;;10.70;99.90;;;;;;5000518;28;20639;-65
2022/11/18 08:05:20;;;;;;;0.43;0.43;;;10.70;99.90;;;;;;5001934;28;20541;-65
2022/11/18 08:07:46;;;;;;;0.40;0.40;;;10.70;99.90;;;;;;5008042;28;20231;-64
2022/11/18 08:10:15;;;;;;;0.40;0.40;;;10.70;99.90;;;;;;5006067;28;20292;-63
2022/11/18 08:12:42;;;;;;;0.50;0.50;;;10.70;99.90;;;;;;5008359;28;20296;-64
2022/11/18 08:15:10;;;;;;;0.20;0.20;;;10.80;99.90;;;;;;5008805;28;20742;-63
2022/11/18 08:17:37;;;;;;;0.40;0.40;;;10.70;99.90;;;;;;5006489;28;20293;-64
2022/11/18 08:20:04;;;;;;;0.20;0.20;;;10.80;99.90;;;;;;5007843;28;20281;-63
2022/11/18 08:22:31;;;;;;;0.20;0.20;;;10.80;99.90;;;;;;5006324;28;20211;-65
2022/11/18 08:24:57;;;;;;;0.20;0.20;;;10.90;99.90;;;;;;5010725;28;20263;-63
2022/11/18 08:27:25;;;;;;;0.50;0.50;;;10.90;99.90;;;;;;5009066;28;20218;-63
2022/11/18 08:29:52;;;;;;;0.30;0.30;;;10.80;99.90;;;;;;5008329;28;20225;-65
2022/11/18 08:32:20;;;;;;;0.20;0.20;;;10.80;99.90;;;;;;5007440;28;20284;-62
2022/11/18 08:34:46;;;;;;;0.30;0.30;;;10.80;99.90;;;;;;5000446;28;20206;-63
2022/11/18 08:37:13;;;;;;;0.40;0.40;;;10.80;99.90;;;;;;4999753;28;20312;-65
2022/11/18 08:39:40;;;;;;;0.40;0.40;;;10.80;99.90;;;;;;5001112;28;20720;-63
2022/11/18 08:42:11;;;;;;;0.30;0.30;;;10.80;99.90;;;;;;5016318;28;20201;-63
2022/11/18 08:44:40;;;;;;;0.40;0.40;;;10.80;99.90;;;;;;5010669;28;20229;-63
2022/11/18 08:47:07;;;;;;;0.40;0.40;;;10.90;99.90;;;;;;5005063;28;20230;-63
2022/11/18 08:49:33;;;;;;;0.27;0.27;;;10.80;99.90;;;;;;5005219;28;20231;-63
2022/11/18 08:52:00;;;;;;;0.30;0.30;;;10.80;99.90;;;;;;5005630;28;20206;-63
2022/11/18 08:54:27;;;;;;;0.30;0.20;;;10.90;99.90;;;;;;5003083;28;20228;-63
2022/11/18 08:56:54;;;;;;;0.37;0.37;;;10.90;99.90;;;;;;5011119;28;20231;-64
2022/11/18 08:59:21;;;;;;;0.20;0.20;;;10.90;99.90;;;;;;5009452;28;20197;-65
2022/11/18 09:01:49;;;;;;;0.33;0.33;;;11.00;99.90;;;;;;5009774;28;20237;-64
2022/11/18 09:04:16;;;;;;;0.10;0.10;;;11.00;99.90;;;;;;5007757;28;20208;-63
2022/11/18 09:06:43;;;;;;;0.30;0.30;;;11.00;99.90;;;;;;5012031;28;20264;-64
2022/11/18 09:09:10;;;;;;;0.10;0.10;;;11.10;99.90;;;;;;5006543;28;20734;-65
2022/11/18 09:11:39;;;;;;;0.30;0.30;;;11.20;99.90;;;;;;5008069;28;20685;-63
2022/11/18 09:14:06;;;;;;;0.23;0.23;;;11.20;99.90;;;;;;5013346;28;20735;-65
2022/11/18 09:16:35;;;;;;;0.17;0.17;;;11.10;99.90;;;;;;5016458;28;20222;-63
2022/11/18 09:19:04;;;;;;;0.10;0.10;;;11.20;99.90;;;;;;5013673;28;20212;-65
2022/11/18 09:21:31;;;;;;;0.20;0.20;;;11.20;99.90;;;;;;5006876;28;20208;-64
2022/11/18 09:23:57;;;;;;;0.10;0.10;;;11.20;99.90;;;;;;5002684;28;20208;-66
2022/11/18 09:26:24;;;;;;;0.30;0.30;;;11.20;99.90;;;;;;5004931;28;20229;-64
2022/11/18 09:28:54;;;;;;;0.40;0.40;;;11.20;99.90;;;;;;4998623;28;20324;-65
2022/11/18 09:31:21;;;;;;;0.33;0.33;;;11.20;99.90;;;;;;4994084;28;20202;-63
2022/11/18 09:33:48;;;;;;;0.90;0.90;;;11.20;99.90;;;;;;4999871;28;20205;-66
2022/11/18 09:36:18;;;;;;;0.70;0.70;;;11.30;99.90;;;;;;5000633;28;20206;-63
2022/11/18 09:38:46;;;;;;;0.30;0.30;;;11.40;99.90;;;;;;4996853;28;20295;-64
2022/11/18 09:41:39;;;;;;;0.20;0.20;;;11.30;99.90;;;;;;4990396;28;20242;-63
2022/11/18 09:44:16;;;;;;;0.30;0.30;;;11.30;99.90;;;;;;4990734;28;20224;-62
2022/11/18 09:46:58;;;;;;;0.60;0.60;;;11.30;99.90;;;;;;4994550;28;20261;-64
2022/11/18 09:49:29;;;;;;;1.10;0.30;;;11.30;99.90;;;;;;4994321;28;20635;-63
2022/11/18 09:52:01;;;;;;;0.20;0.20;;;11.30;99.90;;;;;;4995090;28;20708;-62
2022/11/18 09:54:32;;;;;;;0.20;0.20;;;11.20;99.90;;;;;;4990763;28;20210;-63
2022/11/18 09:56:59;;;;;;;0.37;0.37;;;11.20;99.90;;;;;;4992368;28;20241;-63
2022/11/18 09:59:28;;;;;;;0.40;0.40;;;11.30;99.90;;;;;;4993514;28;20198;-64
2022/11/18 10:02:22;;;;;;;0.50;0.40;;;11.20;99.90;;;;;;4991371;28;20661;-64
2022/11/18 10:04:49;;;;;;;0.50;0.50;;;11.20;99.90;;;;;;4992608;28;20301;-63
2022/11/18 10:07:22;;;;;;;0.30;0.30;;;11.10;99.90;;;;;;5000610;28;20226;-63
2022/11/18 10:09:54;;;;;;;0.20;0.20;;;11.10;99.90;;;;;;4989133;28;20625;-63
2022/11/18 10:12:28;;;;;;;0.40;0.40;;;11.20;99.90;;;;;;4991387;28;20206;-63
2022/11/18 10:15:08;;;;;;;0.40;0.40;;;11.20;99.90;;;;;;4989027;28;20208;-64
2022/11/18 10:17:44;;;;;;;0.17;0.17;;;11.20;99.90;;;;;;4988208;28;20304;-64
2022/11/18 10:20:24;;;;;;;0.40;0.40;;;11.10;99.90;;;;;;4997511;28;20671;-63
2022/11/18 10:22:55;;;;;;;0.47;0.40;;;11.30;99.90;;;;;;4994204;28;20198;-63
2022/11/18 10:25:22;;;;;;;0.30;0.30;;;11.30;99.90;;;;;;4993844;28;20206;-62
2022/11/18 10:27:51;;;;;;;0.40;0.40;;;11.40;99.90;;;;;;5005537;28;20221;-64
2022/11/18 10:30:19;;;;;;;0.30;0.30;;;11.40;99.90;;;;;;4990950;28;20261;-63
2022/11/18 10:33:00;;;;;;;0.63;0.63;;;11.50;99.90;;;;;;4997598;28;20205;-64
2022/11/18 10:35:30;;;;;;;0.40;0.40;;;11.60;99.90;;;;;;4997524;28;20206;-63
2022/11/18 10:38:04;;;;;;;0.43;0.43;;;11.70;99.90;;;;;;5006356;28;20260;-62
2022/11/18 10:40:33;;;;;;;0.30;0.30;;;11.70;99.90;;;;;;4990524;28;20641;-62
2022/11/18 10:43:00;;;;;;;0.30;0.30;;;11.70;99.90;;;;;;4993081;28;20206;-63
2022/11/18 10:45:29;;;;;;;0.40;0.40;;;11.70;99.90;;;;;;4993615;28;20294;-62
2022/11/18 10:48:08;;;;;;;0.40;0.40;;;11.80;99.90;;;;;;4993917;28;20815;-63
2022/11/18 10:50:37;;;;;;;0.30;0.30;;;11.80;99.90;;;;;;4993424;28;20254;-62
2022/11/18 10:53:25;;;;;;;0.33;0.33;;;12.00;99.90;;;;;;4993145;28;20284;-64
2022/11/18 10:55:58;;;;;;;0.40;0.40;;;12.10;99.90;;;;;;4993713;28;20679;-64
2022/11/18 10:58:25;;;;;;;0.40;0.40;;;12.20;99.90;;;;;;4992860;28;20732;-62
2022/11/18 11:00:52;;;;;;;0.40;0.40;;;12.30;99.90;;;;;;4989386;28;20205;-64
2022/11/18 11:03:37;;;;;;;0.30;0.30;;;12.30;99.90;;;;;;4995061;28;20206;-62
2022/11/18 11:06:20;;;;;;;0.30;0.30;;;12.30;99.90;;;;;;4992537;28;20617;-63
2022/11/18 11:08:52;;;;;;;0.33;0.33;;;12.30;99.90;;;;;;4991143;28;20281;-62
2022/11/18 11:11:27;;;;;;;0.50;0.50;;;12.40;99.90;;;;;;4991493;28;20290;-62
2022/11/18 11:14:16;;;;;;;0.67;0.67;;;12.40;99.90;;;;;;4987445;28;20205;-63
2022/11/18 11:16:49;;;;;;;0.43;0.43;;;12.50;99.90;;;;;;4992695;28;20232;-63
2022/11/18 11:19:31;;;;;;;0.33;0.33;;;12.70;99.90;;;;;;4994689;28;20313;-67
2022/11/18 11:21:58;;;;;;;0.50;0.50;;;12.80;99.90;;;;;;4994814;28;20202;-63
2022/11/18 11:24:27;;;;;;;0.40;0.40;;;12.90;99.90;;;;;;4994571;28;20572;-62
2022/11/18 11:27:06;;;;;;;0.40;0.40;;;13.10;99.90;;;;;;4993264;28;20225;-62
2022/11/18 11:30:04;;;;;;;0.60;0.60;;;13.30;99.90;;;;;;4990094;28;20222;-64
2022/11/18 11:32:46;;;;;;;0.40;0.40;;;13.50;99.90;;;;;;4991387;28;20212;-62
2022/11/18 11:35:19;;;;;;;0.50;0.50;;;13.50;99.90;;;;;;4990643;28;20256;-64
2022/11/18 11:37:52;;;;;;;0.43;0.43;;;13.50;99.90;;;;;;4996257;28;20222;-63
2022/11/18 11:40:30;;;;;;;0.30;0.30;;;13.50;99.90;;;;;;4992621;28;20203;-63
2022/11/18 11:43:19;;;;;;;0.40;0.40;;;13.60;99.90;;;;;;4992430;28;20321;-65
2022/11/18 11:46:04;;;;;;;0.50;0.50;;;13.80;99.90;;;;;;4993678;28;20687;-62
2022/11/18 11:48:46;;;;;;;0.60;0.60;;;13.80;99.90;;;;;;4993041;28;20210;-63
2022/11/18 11:51:21;;;;;;;0.50;0.50;;;13.80;99.90;;;;;;4997425;28;20556;-62
2022/11/18 11:54:07;;;;;;;0.43;0.43;;;13.80;99.90;;;;;;4999029;28;20229;-63
2022/11/18 11:56:40;;;;;;;0.60;0.60;;;13.90;99.90;;;;;;5003622;28;20596;-63
2022/11/18 11:59:18;;;;;;;0.40;0.40;;;13.90;99.90;;;;;;5000766;28;20198;-63
2022/11/18 12:01:58;;;;;;;0.50;0.50;;;13.80;99.90;;;;;;5000634;28;20207;-63
2022/11/18 12:04:37;;;;;;;0.80;0.80;;;13.70;99.90;;;;;;5000718;28;20691;-62
2022/11/18 12:07:06;;;;;;;0.50;0.50;;;13.60;99.90;;;;;;4998556;28;20766;-62
2022/11/18 12:09:46;;;;;;;0.53;0.47;;;13.40;99.90;;;;;;5000475;28;20230;-63
2022/11/18 12:12:35;;;;;;;0.50;0.50;;;13.40;99.90;;;;;;4990709;28;20254;-63
2022/11/18 12:15:19;;;;;;;0.50;0.50;;;13.30;99.90;;;;;;5039103;22;20228;-66
2022/11/18 12:17:56;;;;;;;0.60;0.60;;;13.30;99.90;;;;;;5025320;28;20681;-66
2022/11/18 12:20:44;;;;;;;0.57;0.57;;;13.20;99.90;;;;;;5031509;28;20284;-65
2022/11/18 12:23:16;;;;;;;0.60;0.60;;;13.20;99.90;;;;;;5041604;28;20228;-66
2022/11/18 12:25:51;;;;;;;0.40;0.40;;;13.20;99.90;;;;;;5031040;28;20702;-66
2022/11/18 12:28:26;;;;;;;0.33;0.33;;;13.10;99.90;;;;;;5032898;28;20204;-66
2022/11/18 12:31:26;;;;;;;0.30;0.30;;;13.10;99.90;;;;;;5028243;28;20307;-65
2022/11/18 12:33:55;;;;;;;0.50;0.50;;;13.10;99.90;;;;;;5034114;28;20232;-65
2022/11/18 12:36:26;;;;;;;0.40;0.40;;;13.10;99.90;;;;;;5031140;28;20201;-64
2022/11/18 12:38:53;;;;;;;0.50;0.50;;;13.10;99.90;;;;;;5032271;28;20219;-64
2022/11/18 12:44:40;;;;;;;0.50;0.50;;;12.90;99.90;;;;;;5029340;28;20224;-65
2022/11/18 12:47:08;;;;;;;0.77;0.63;;;12.90;99.90;;;;;;5030348;28;20574;-65
2022/11/18 12:50:09;;;;;;;0.30;0.30;;;12.80;99.90;;;;;;5027900;28;20221;-65
2022/11/18 12:52:47;;;;;;;0.40;0.40;;;12.80;99.90;;;;;;5030831;28;20196;-64
2022/11/18 12:55:20;;;;;;;0.40;0.40;;;12.80;99.90;;;;;;5030884;28;20747;-64
2022/11/18 12:57:47;;;;;;;0.30;0.30;;;12.90;99.90;;;;;;5031239;28;20201;-63
2022/11/18 13:00:29;;;;;;;0.70;0.70;;;13.00;99.90;;;;;;5033194;28;20203;-65
2022/11/18 13:02:58;;;;;;;0.43;0.43;;;12.90;99.90;;;;;;5027649;28;20233;-65
2022/11/18 13:05:26;;;;;;;0.67;0.40;;;12.90;99.90;;;;;;5033158;28;20234;-65
2022/11/18 13:08:15;;;;;;;0.40;0.40;;;13.00;99.90;;;;;;5032815;28;20201;-64
2022/11/18 13:10:48;;;;;;;0.47;0.47;;;12.90;99.90;;;;;;5033691;28;20216;-65
2022/11/18 13:13:25;;;;;;;0.50;0.50;;;12.80;99.90;;;;;;5032496;28;20205;-64
2022/11/18 13:18:50;;;;;;;0.37;0.37;;;12.90;99.90;;;;;;5025281;28;20324;-65
2022/11/18 13:24:11;;;;;;;0.57;0.57;;;13.20;99.90;;;;;;5030351;28;20246;-65
2022/11/18 13:26:41;;;;;;;0.50;0.50;;;13.30;99.90;;;;;;5032062;28;20208;-65
2022/11/18 13:29:29;;;;;;;0.50;0.50;;;13.30;99.90;;;;;;5031542;28;20204;-65
2022/11/18 13:32:17;;;;;;;0.97;0.60;;;13.30;99.90;;;;;;5031660;28;20215;-64
2022/11/18 13:34:47;;;;;;;0.60;0.60;;;13.20;99.90;;;;;;5030397;28;20224;-65
2022/11/18 13:37:18;;;;;;;0.70;0.70;;;13.40;99.90;;;;;;5031833;28;20196;-64